sensor_id;sensor_type;location;lat;lon;timestamp;temperature;humidity
17182;DHT22;8706;48.254;16.422;2023-10-13T00:02:03;23.70;64.70
17182;DHT22;8706;48.254;16.422;2023-10-13T00:04:31;23.60;64.70
17182;DHT22;8706;48.254;16.422;2023-10-13T00:07:01;23.60;64.70
17182;DHT22;8706;48.254;16.422;2023-10-13T00:09:30;23.60;64.80
17182;DHT22;8706;48.254;16.422;2023-10-13T00:12:00;23.60;64.70
17182;DHT22;8706;48.254;16.422;2023-10-13T00:14:27;23.60;64.80
17182;DHT22;8706;48.254;16.422;2023-10-13T00:16:59;23.60;64.90
17182;DHT22;8706;48.254;16.422;2023-10-13T00:19:31;23.60;64.90
17182;DHT22;8706;48.254;16.422;2023-10-13T00:22:05;23.60;64.90
17182;DHT22;8706;48.254;16.422;2023-10-13T00:24:39;23.60;64.90
17182;DHT22;8706;48.254;16.422;2023-10-13T00:27:15;23.60;64.90
17182;DHT22;8706;48.254;16.422;2023-10-13T00:29:56;23.60;65.00
17182;DHT22;8706;48.254;16.422;2023-10-13T00:32:36;23.60;64.90
17182;DHT22;8706;48.254;16.422;2023-10-13T00:35:06;23.50;64.80
17182;DHT22;8706;48.254;16.422;2023-10-13T00:37:37;23.60;64.90
17182;DHT22;8706;48.254;16.422;2023-10-13T00:40:10;23.50;64.90
17182;DHT22;8706;48.254;16.422;2023-10-13T00:42:53;23.50;65.00
17182;DHT22;8706;48.254;16.422;2023-10-13T00:45:23;23.50;65.00
17182;DHT22;8706;48.254;16.422;2023-10-13T00:47:49;23.50;64.90
17182;DHT22;8706;48.254;16.422;2023-10-13T00:50:22;23.50;64.90
17182;DHT22;8706;48.254;16.422;2023-10-13T00:52:51;23.50;65.00
17182;DHT22;8706;48.254;16.422;2023-10-13T00:55:18;23.50;65.00
17182;DHT22;8706;48.254;16.422;2023-10-13T00:57:52;23.50;64.90
17182;DHT22;8706;48.254;16.422;2023-10-13T01:00:20;23.50;65.00
17182;DHT22;8706;48.254;16.422;2023-10-13T01:02:52;23.50;64.90
17182;DHT22;8706;48.254;16.422;2023-10-13T01:05:21;23.60;65.00
17182;DHT22;8706;48.254;16.422;2023-10-13T01:07:49;23.60;65.00
17182;DHT22;8706;48.254;16.422;2023-10-13T01:10:18;23.50;65.00
17182;DHT22;8706;48.254;16.422;2023-10-13T01:12:45;23.50;65.00
17182;DHT22;8706;48.254;16.422;2023-10-13T01:15:13;23.50;65.00
17182;DHT22;8706;48.254;16.422;2023-10-13T01:17:43;23.50;65.00
17182;DHT22;8706;48.254;16.422;2023-10-13T01:20:12;23.50;65.00
17182;DHT22;8706;48.254;16.422;2023-10-13T01:22:45;23.50;65.10
17182;DHT22;8706;48.254;16.422;2023-10-13T01:25:16;23.50;65.00
17182;DHT22;8706;48.254;16.422;2023-10-13T01:27:45;23.50;65.10
17182;DHT22;8706;48.254;16.422;2023-10-13T01:30:14;23.50;65.10
17182;DHT22;8706;48.254;16.422;2023-10-13T01:32:48;23.50;65.10
17182;DHT22;8706;48.254;16.422;2023-10-13T01:35:16;23.50;65.10
17182;DHT22;8706;48.254;16.422;2023-10-13T01:37:44;23.50;65.10
17182;DHT22;8706;48.254;16.422;2023-10-13T01:40:11;23.50;65.10
17182;DHT22;8706;48.254;16.422;2023-10-13T01:42:45;23.50;65.20
17182;DHT22;8706;48.254;16.422;2023-10-13T01:45:11;23.40;65.10
17182;DHT22;8706;48.254;16.422;2023-10-13T01:47:39;23.40;65.20
17182;DHT22;8706;48.254;16.422;2023-10-13T01:50:06;23.40;65.20
17182;DHT22;8706;48.254;16.422;2023-10-13T01:52:40;23.40;65.20
17182;DHT22;8706;48.254;16.422;2023-10-13T01:55:08;23.40;65.20
17182;DHT22;8706;48.254;16.422;2023-10-13T01:57:36;23.40;65.20
17182;DHT22;8706;48.254;16.422;2023-10-13T02:00:05;23.40;65.30
17182;DHT22;8706;48.254;16.422;2023-10-13T02:02:44;23.40;65.30
17182;DHT22;8706;48.254;16.422;2023-10-13T02:05:11;23.40;65.20
17182;DHT22;8706;48.254;16.422;2023-10-13T02:07:37;23.40;65.30
17182;DHT22;8706;48.254;16.422;2023-10-13T02:10:11;23.40;65.30
17182;DHT22;8706;48.254;16.422;2023-10-13T02:12:37;23.40;65.20
17182;DHT22;8706;48.254;16.422;2023-10-13T02:15:11;23.40;66.00
17182;DHT22;8706;48.254;16.422;2023-10-13T02:17:46;23.40;65.30
17182;DHT22;8706;48.254;16.422;2023-10-13T02:20:17;23.40;65.30
17182;DHT22;8706;48.254;16.422;2023-10-13T02:22:44;23.40;65.30
17182;DHT22;8706;48.254;16.422;2023-10-13T02:25:15;23.40;65.30
17182;DHT22;8706;48.254;16.422;2023-10-13T02:27:43;23.40;65.30
17182;DHT22;8706;48.254;16.422;2023-10-13T02:30:15;23.40;65.30
17182;DHT22;8706;48.254;16.422;2023-10-13T02:32:41;23.40;65.30
17182;DHT22;8706;48.254;16.422;2023-10-13T02:35:09;23.40;65.30
17182;DHT22;8706;48.254;16.422;2023-10-13T02:37:41;23.40;65.40
17182;DHT22;8706;48.254;16.422;2023-10-13T02:40:10;23.40;65.30
17182;DHT22;8706;48.254;16.422;2023-10-13T02:42:37;23.40;65.40
17182;DHT22;8706;48.254;16.422;2023-10-13T02:45:05;23.40;65.40
17182;DHT22;8706;48.254;16.422;2023-10-13T02:47:33;23.40;65.40
17182;DHT22;8706;48.254;16.422;2023-10-13T02:49:59;23.40;65.40
17182;DHT22;8706;48.254;16.422;2023-10-13T02:52:26;23.40;65.40
17182;DHT22;8706;48.254;16.422;2023-10-13T02:54:58;23.40;65.40
17182;DHT22;8706;48.254;16.422;2023-10-13T02:57:24;23.40;65.40
17182;DHT22;8706;48.254;16.422;2023-10-13T02:59:52;23.40;65.40
17182;DHT22;8706;48.254;16.422;2023-10-13T03:02:24;23.40;65.40
17182;DHT22;8706;48.254;16.422;2023-10-13T03:04:53;23.40;65.50
17182;DHT22;8706;48.254;16.422;2023-10-13T03:07:24;23.40;65.50
17182;DHT22;8706;48.254;16.422;2023-10-13T03:09:54;23.40;65.50
17182;DHT22;8706;48.254;16.422;2023-10-13T03:12:23;23.40;65.50
17182;DHT22;8706;48.254;16.422;2023-10-13T03:14:51;23.40;65.50
17182;DHT22;8706;48.254;16.422;2023-10-13T03:17:21;23.40;65.50
17182;DHT22;8706;48.254;16.422;2023-10-13T03:20:00;23.40;65.50
17182;DHT22;8706;48.254;16.422;2023-10-13T03:22:27;23.40;65.50
17182;DHT22;8706;48.254;16.422;2023-10-13T03:24:56;23.30;65.50
17182;DHT22;8706;48.254;16.422;2023-10-13T03:27:26;23.30;65.50
17182;DHT22;8706;48.254;16.422;2023-10-13T03:30:06;23.40;65.60
17182;DHT22;8706;48.254;16.422;2023-10-13T03:32:39;23.30;65.50
17182;DHT22;8706;48.254;16.422;2023-10-13T03:35:10;23.30;65.50
17182;DHT22;8706;48.254;16.422;2023-10-13T03:37:39;23.30;65.50
17182;DHT22;8706;48.254;16.422;2023-10-13T03:40:07;23.30;65.50
17182;DHT22;8706;48.254;16.422;2023-10-13T03:42:57;23.40;65.50
17182;DHT22;8706;48.254;16.422;2023-10-13T03:45:30;23.30;65.60
17182;DHT22;8706;48.254;16.422;2023-10-13T03:48:02;23.40;65.50
17182;DHT22;8706;48.254;16.422;2023-10-13T03:50:35;23.30;65.50
17182;DHT22;8706;48.254;16.422;2023-10-13T03:53:03;23.40;65.50
17182;DHT22;8706;48.254;16.422;2023-10-13T03:55:32;23.40;65.50
17182;DHT22;8706;48.254;16.422;2023-10-13T03:58:00;23.30;65.50
17182;DHT22;8706;48.254;16.422;2023-10-13T04:00:30;23.40;65.60
17182;DHT22;8706;48.254;16.422;2023-10-13T04:02:57;23.40;65.50
17182;DHT22;8706;48.254;16.422;2023-10-13T04:05:36;23.40;65.50
17182;DHT22;8706;48.254;16.422;2023-10-13T04:08:06;23.30;65.50
17182;DHT22;8706;48.254;16.422;2023-10-13T04:10:51;23.30;65.50
17182;DHT22;8706;48.254;16.422;2023-10-13T04:13:44;23.30;65.50
17182;DHT22;8706;48.254;16.422;2023-10-13T04:16:29;23.40;65.50
17182;DHT22;8706;48.254;16.422;2023-10-13T04:19:03;23.30;65.50
17182;DHT22;8706;48.254;16.422;2023-10-13T04:21:47;23.40;65.50
17182;DHT22;8706;48.254;16.422;2023-10-13T04:24:23;23.30;65.50
17182;DHT22;8706;48.254;16.422;2023-10-13T04:27:05;23.30;65.50
17182;DHT22;8706;48.254;16.422;2023-10-13T04:29:50;23.30;65.60
17182;DHT22;8706;48.254;16.422;2023-10-13T04:32:27;23.30;65.60
17182;DHT22;8706;48.254;16.422;2023-10-13T04:35:00;23.30;65.60
17182;DHT22;8706;48.254;16.422;2023-10-13T04:37:37;23.30;65.60
17182;DHT22;8706;48.254;16.422;2023-10-13T04:40:18;23.30;65.60
17182;DHT22;8706;48.254;16.422;2023-10-13T04:42:50;23.30;65.60
17182;DHT22;8706;48.254;16.422;2023-10-13T04:45:19;23.30;65.70
17182;DHT22;8706;48.254;16.422;2023-10-13T04:48:04;23.30;65.60
17182;DHT22;8706;48.254;16.422;2023-10-13T04:50:59;23.30;65.70
17182;DHT22;8706;48.254;16.422;2023-10-13T04:53:47;23.30;65.70
17182;DHT22;8706;48.254;16.422;2023-10-13T04:56:26;23.30;65.70
17182;DHT22;8706;48.254;16.422;2023-10-13T04:59:32;23.30;65.70
17182;DHT22;8706;48.254;16.422;2023-10-13T05:02:26;23.30;65.80
17182;DHT22;8706;48.254;16.422;2023-10-13T05:05:20;23.30;65.70
17182;DHT22;8706;48.254;16.422;2023-10-13T05:08:05;23.30;65.70
17182;DHT22;8706;48.254;16.422;2023-10-13T05:11:01;23.30;65.80
17182;DHT22;8706;48.254;16.422;2023-10-13T05:13:46;23.30;65.80
17182;DHT22;8706;48.254;16.422;2023-10-13T05:16:32;23.30;65.80
17182;DHT22;8706;48.254;16.422;2023-10-13T05:19:16;23.30;65.90
17182;DHT22;8706;48.254;16.422;2023-10-13T05:22:00;23.30;65.90
17182;DHT22;8706;48.254;16.422;2023-10-13T05:24:44;23.30;65.80
17182;DHT22;8706;48.254;16.422;2023-10-13T05:27:29;23.30;65.80
17182;DHT22;8706;48.254;16.422;2023-10-13T05:30:13;23.30;65.80
17182;DHT22;8706;48.254;16.422;2023-10-13T05:32:58;23.30;65.80
17182;DHT22;8706;48.254;16.422;2023-10-13T05:35:43;23.30;65.70
17182;DHT22;8706;48.254;16.422;2023-10-13T05:38:27;23.30;65.70
17182;DHT22;8706;48.254;16.422;2023-10-13T05:41:11;23.30;65.70
17182;DHT22;8706;48.254;16.422;2023-10-13T05:43:55;23.30;65.70
17182;DHT22;8706;48.254;16.422;2023-10-13T05:46:39;23.30;65.80
17182;DHT22;8706;48.254;16.422;2023-10-13T05:49:25;23.30;65.70
17182;DHT22;8706;48.254;16.422;2023-10-13T05:52:09;23.40;65.70
17182;DHT22;8706;48.254;16.422;2023-10-13T05:55:05;23.30;65.60
17182;DHT22;8706;48.254;16.422;2023-10-13T05:57:50;23.40;65.70
17182;DHT22;8706;48.254;16.422;2023-10-13T06:00:38;23.40;65.60
17182;DHT22;8706;48.254;16.422;2023-10-13T06:03:24;23.40;65.50
17182;DHT22;8706;48.254;16.422;2023-10-13T06:06:10;23.40;66.20
17182;DHT22;8706;48.254;16.422;2023-10-13T06:08:54;23.40;65.50
17182;DHT22;8706;48.254;16.422;2023-10-13T06:11:38;23.40;65.50
17182;DHT22;8706;48.254;16.422;2023-10-13T06:14:22;23.40;65.40
17182;DHT22;8706;48.254;16.422;2023-10-13T06:17:06;23.40;65.40
17182;DHT22;8706;48.254;16.422;2023-10-13T06:19:51;23.50;65.40
17182;DHT22;8706;48.254;16.422;2023-10-13T06:22:36;23.50;65.30
17182;DHT22;8706;48.254;16.422;2023-10-13T06:25:20;23.50;65.30
17182;DHT22;8706;48.254;16.422;2023-10-13T06:28:05;23.50;65.20
17182;DHT22;8706;48.254;16.422;2023-10-13T06:30:59;23.50;65.20
17182;DHT22;8706;48.254;16.422;2023-10-13T06:33:27;23.60;65.20
17182;DHT22;8706;48.254;16.422;2023-10-13T06:35:56;23.60;65.10
17182;DHT22;8706;48.254;16.422;2023-10-13T06:38:25;23.60;65.10
17182;DHT22;8706;48.254;16.422;2023-10-13T06:40:56;23.60;65.10
17182;DHT22;8706;48.254;16.422;2023-10-13T06:43:23;23.60;65.00
17182;DHT22;8706;48.254;16.422;2023-10-13T06:45:50;23.60;65.00
17182;DHT22;8706;48.254;16.422;2023-10-13T06:48:23;23.70;64.90
17182;DHT22;8706;48.254;16.422;2023-10-13T06:50:53;23.80;64.80
17182;DHT22;8706;48.254;16.422;2023-10-13T06:53:21;23.80;64.60
17182;DHT22;8706;48.254;16.422;2023-10-13T06:55:51;23.90;64.50
17182;DHT22;8706;48.254;16.422;2023-10-13T06:58:25;23.90;64.40
17182;DHT22;8706;48.254;16.422;2023-10-13T07:00:54;24.00;64.20
17182;DHT22;8706;48.254;16.422;2023-10-13T07:03:24;24.10;64.00
17182;DHT22;8706;48.254;16.422;2023-10-13T07:05:51;24.10;63.90
17182;DHT22;8706;48.254;16.422;2023-10-13T07:08:19;24.20;63.80
17182;DHT22;8706;48.254;16.422;2023-10-13T07:10:51;24.20;63.60
17182;DHT22;8706;48.254;16.422;2023-10-13T07:13:27;24.50;63.10
17182;DHT22;8706;48.254;16.422;2023-10-13T07:15:54;24.50;63.10
17182;DHT22;8706;48.254;16.422;2023-10-13T07:18:25;24.70;62.80
17182;DHT22;8706;48.254;16.422;2023-10-13T07:20:58;24.60;62.80
17182;DHT22;8706;48.254;16.422;2023-10-13T07:23:25;24.60;62.70
17182;DHT22;8706;48.254;16.422;2023-10-13T07:25:57;24.90;62.40
17182;DHT22;8706;48.254;16.422;2023-10-13T07:28:28;25.30;61.80
17182;DHT22;8706;48.254;16.422;2023-10-13T07:30:56;25.80;61.10
17182;DHT22;8706;48.254;16.422;2023-10-13T07:33:37;26.10;60.50
17182;DHT22;8706;48.254;16.422;2023-10-13T07:36:07;26.40;60.00
17182;DHT22;8706;48.254;16.422;2023-10-13T07:38:42;26.60;59.70
17182;DHT22;8706;48.254;16.422;2023-10-13T07:41:10;26.90;59.20
17182;DHT22;8706;48.254;16.422;2023-10-13T07:43:42;26.50;59.40
17182;DHT22;8706;48.254;16.422;2023-10-13T07:46:10;27.00;59.20
17182;DHT22;8706;48.254;16.422;2023-10-13T07:48:38;27.30;58.60
17182;DHT22;8706;48.254;16.422;2023-10-13T07:51:07;27.60;58.30
17182;DHT22;8706;48.254;16.422;2023-10-13T07:53:37;27.60;58.00
17182;DHT22;8706;48.254;16.422;2023-10-13T07:56:06;27.70;57.90
17182;DHT22;8706;48.254;16.422;2023-10-13T07:58:35;27.60;57.90
17182;DHT22;8706;48.254;16.422;2023-10-13T08:01:13;27.80;57.90
17182;DHT22;8706;48.254;16.422;2023-10-13T08:03:44;28.20;57.50
17182;DHT22;8706;48.254;16.422;2023-10-13T08:06:11;28.40;57.20
17182;DHT22;8706;48.254;16.422;2023-10-13T08:08:47;28.60;56.60
17182;DHT22;8706;48.254;16.422;2023-10-13T08:11:19;28.80;56.30
17182;DHT22;8706;48.254;16.422;2023-10-13T08:13:58;28.90;56.00
17182;DHT22;8706;48.254;16.422;2023-10-13T08:16:27;29.10;55.80
17182;DHT22;8706;48.254;16.422;2023-10-13T08:19:12;29.20;55.50
17182;DHT22;8706;48.254;16.422;2023-10-13T08:21:40;29.20;55.50
17182;DHT22;8706;48.254;16.422;2023-10-13T08:24:15;29.30;55.40
17182;DHT22;8706;48.254;16.422;2023-10-13T08:26:42;29.40;55.50
17182;DHT22;8706;48.254;16.422;2023-10-13T08:29:42;29.50;55.50
17182;DHT22;8706;48.254;16.422;2023-10-13T08:32:27;29.70;55.30
17182;DHT22;8706;48.254;16.422;2023-10-13T08:35:10;29.70;54.90
17182;DHT22;8706;48.254;16.422;2023-10-13T08:37:48;29.50;55.00
17182;DHT22;8706;48.254;16.422;2023-10-13T08:40:27;28.40;56.10
17182;DHT22;8706;48.254;16.422;2023-10-13T08:43:12;27.60;57.50
17182;DHT22;8706;48.254;16.422;2023-10-13T08:45:42;27.10;58.20
17182;DHT22;8706;48.254;16.422;2023-10-13T08:48:26;26.90;58.50
17182;DHT22;8706;48.254;16.422;2023-10-13T08:50:58;26.80;58.80
17182;DHT22;8706;48.254;16.422;2023-10-13T08:53:35;26.70;59.20
17182;DHT22;8706;48.254;16.422;2023-10-13T08:56:12;26.70;59.60
17182;DHT22;8706;48.254;16.422;2023-10-13T08:58:44;26.70;59.40
17182;DHT22;8706;48.254;16.422;2023-10-13T09:01:34;26.80;59.20
17182;DHT22;8706;48.254;16.422;2023-10-13T09:04:01;28.20;58.00
17182;DHT22;8706;48.254;16.422;2023-10-13T09:06:42;29.00;56.70
17182;DHT22;8706;48.254;16.422;2023-10-13T09:09:12;29.50;56.00
17182;DHT22;8706;48.254;16.422;2023-10-13T09:11:53;29.80;55.40
17182;DHT22;8706;48.254;16.422;2023-10-13T09:14:33;29.80;56.10
17182;DHT22;8706;48.254;16.422;2023-10-13T09:17:04;30.00;55.00
17182;DHT22;8706;48.254;16.422;2023-10-13T09:19:48;30.20;54.80
17182;DHT22;8706;48.254;16.422;2023-10-13T09:22:21;30.50;54.50
17182;DHT22;8706;48.254;16.422;2023-10-13T09:24:53;30.60;54.10
17182;DHT22;8706;48.254;16.422;2023-10-13T09:27:19;30.60;54.00
17182;DHT22;8706;48.254;16.422;2023-10-13T09:29:55;30.60;54.10
17182;DHT22;8706;48.254;16.422;2023-10-13T09:32:22;30.50;54.40
17182;DHT22;8706;48.254;16.422;2023-10-13T09:34:49;30.60;54.00
17182;DHT22;8706;48.254;16.422;2023-10-13T09:37:16;30.70;53.80
17182;DHT22;8706;48.254;16.422;2023-10-13T09:39:46;30.80;53.80
17182;DHT22;8706;48.254;16.422;2023-10-13T09:42:17;30.80;53.70
17182;DHT22;8706;48.254;16.422;2023-10-13T09:44:44;30.90;53.60
17182;DHT22;8706;48.254;16.422;2023-10-13T09:47:22;30.90;53.60
17182;DHT22;8706;48.254;16.422;2023-10-13T09:49:59;31.00;53.60
17182;DHT22;8706;48.254;16.422;2023-10-13T09:52:31;31.00;53.50
17182;DHT22;8706;48.254;16.422;2023-10-13T09:55:09;31.10;53.60
17182;DHT22;8706;48.254;16.422;2023-10-13T09:57:43;31.00;53.50
17182;DHT22;8706;48.254;16.422;2023-10-13T10:00:12;31.00;53.60
17182;DHT22;8706;48.254;16.422;2023-10-13T10:03:06;31.00;53.60
17182;DHT22;8706;48.254;16.422;2023-10-13T10:05:41;30.70;53.90
17182;DHT22;8706;48.254;16.422;2023-10-13T10:08:23;30.60;54.20
17182;DHT22;8706;48.254;16.422;2023-10-13T10:11:04;30.70;54.00
17182;DHT22;8706;48.254;16.422;2023-10-13T10:13:38;30.70;54.10
17182;DHT22;8706;48.254;16.422;2023-10-13T10:16:11;30.50;54.20
17182;DHT22;8706;48.254;16.422;2023-10-13T10:18:46;30.70;54.10
17182;DHT22;8706;48.254;16.422;2023-10-13T10:21:14;30.60;54.20
17182;DHT22;8706;48.254;16.422;2023-10-13T10:23:52;30.70;54.00
17182;DHT22;8706;48.254;16.422;2023-10-13T10:26:19;30.60;53.90
17182;DHT22;8706;48.254;16.422;2023-10-13T10:28:46;30.30;54.20
17182;DHT22;8706;48.254;16.422;2023-10-13T10:31:13;30.80;53.80
17182;DHT22;8706;48.254;16.422;2023-10-13T10:33:42;30.60;53.90
17182;DHT22;8706;48.254;16.422;2023-10-13T10:36:12;30.70;53.90
17182;DHT22;8706;48.254;16.422;2023-10-13T10:38:52;30.40;54.20
17182;DHT22;8706;48.254;16.422;2023-10-13T10:41:26;30.40;54.30
17182;DHT22;8706;48.254;16.422;2023-10-13T10:44:09;30.50;54.40
17182;DHT22;8706;48.254;16.422;2023-10-13T10:46:40;30.80;53.90
17182;DHT22;8706;48.254;16.422;2023-10-13T10:49:17;31.00;53.50
17182;DHT22;8706;48.254;16.422;2023-10-13T10:51:58;31.00;53.90
17182;DHT22;8706;48.254;16.422;2023-10-13T10:54:29;31.10;53.80
17182;DHT22;8706;48.254;16.422;2023-10-13T10:56:57;31.20;53.80
17182;DHT22;8706;48.254;16.422;2023-10-13T10:59:37;31.20;53.60
17182;DHT22;8706;48.254;16.422;2023-10-13T11:02:04;31.10;53.60
17182;DHT22;8706;48.254;16.422;2023-10-13T11:04:33;31.10;53.70
17182;DHT22;8706;48.254;16.422;2023-10-13T11:07:02;31.10;53.60
17182;DHT22;8706;48.254;16.422;2023-10-13T11:09:33;31.20;53.60
17182;DHT22;8706;48.254;16.422;2023-10-13T11:12:10;31.10;53.60
17182;DHT22;8706;48.254;16.422;2023-10-13T11:15:00;31.10;53.70
17182;DHT22;8706;48.254;16.422;2023-10-13T11:17:27;31.20;53.50
17182;DHT22;8706;48.254;16.422;2023-10-13T11:20:11;31.10;53.50
17182;DHT22;8706;48.254;16.422;2023-10-13T11:22:45;31.10;53.70
17182;DHT22;8706;48.254;16.422;2023-10-13T11:25:21;31.10;53.80
17182;DHT22;8706;48.254;16.422;2023-10-13T11:27:49;31.10;53.70
17182;DHT22;8706;48.254;16.422;2023-10-13T11:30:23;31.00;53.90
17182;DHT22;8706;48.254;16.422;2023-10-13T11:33:07;30.90;53.70
17182;DHT22;8706;48.254;16.422;2023-10-13T11:35:35;31.00;53.80
17182;DHT22;8706;48.254;16.422;2023-10-13T11:38:23;30.90;53.80
17182;DHT22;8706;48.254;16.422;2023-10-13T11:40:54;30.90;53.90
17182;DHT22;8706;48.254;16.422;2023-10-13T11:43:38;30.70;53.80
17182;DHT22;8706;48.254;16.422;2023-10-13T11:46:19;30.70;54.00
17182;DHT22;8706;48.254;16.422;2023-10-13T11:49:00;30.70;54.10
17182;DHT22;8706;48.254;16.422;2023-10-13T11:51:31;30.70;54.10
17182;DHT22;8706;48.254;16.422;2023-10-13T11:54:00;30.70;54.10
17182;DHT22;8706;48.254;16.422;2023-10-13T11:56:26;30.60;53.90
17182;DHT22;8706;48.254;16.422;2023-10-13T11:58:53;30.60;54.10
17182;DHT22;8706;48.254;16.422;2023-10-13T12:01:26;30.60;54.10
17182;DHT22;8706;48.254;16.422;2023-10-13T12:04:14;30.50;54.10
17182;DHT22;8706;48.254;16.422;2023-10-13T12:06:58;30.50;54.10
17182;DHT22;8706;48.254;16.422;2023-10-13T12:09:41;30.50;54.30
17182;DHT22;8706;48.254;16.422;2023-10-13T12:12:18;30.40;54.20
17182;DHT22;8706;48.254;16.422;2023-10-13T12:14:45;30.30;54.30
17182;DHT22;8706;48.254;16.422;2023-10-13T12:17:20;30.30;54.30
17182;DHT22;8706;48.254;16.422;2023-10-13T12:19:51;30.20;54.30
17182;DHT22;8706;48.254;16.422;2023-10-13T12:22:18;30.20;54.40
17182;DHT22;8706;48.254;16.422;2023-10-13T12:24:55;30.10;54.30
17182;DHT22;8706;48.254;16.422;2023-10-13T12:27:22;30.10;54.50
17182;DHT22;8706;48.254;16.422;2023-10-13T12:29:53;30.10;54.70
17182;DHT22;8706;48.254;16.422;2023-10-13T12:32:22;30.00;54.70
17182;DHT22;8706;48.254;16.422;2023-10-13T12:34:50;30.00;54.70
17182;DHT22;8706;48.254;16.422;2023-10-13T12:37:42;29.90;54.80
17182;DHT22;8706;48.254;16.422;2023-10-13T12:40:31;29.90;54.90
17182;DHT22;8706;48.254;16.422;2023-10-13T12:43:15;29.90;54.90
17182;DHT22;8706;48.254;16.422;2023-10-13T12:45:59;29.80;54.90
17182;DHT22;8706;48.254;16.422;2023-10-13T12:48:44;29.70;55.10
17182;DHT22;8706;48.254;16.422;2023-10-13T12:51:29;29.70;55.10
17182;DHT22;8706;48.254;16.422;2023-10-13T12:54:16;29.60;55.20
17182;DHT22;8706;48.254;16.422;2023-10-13T12:56:50;29.50;55.30
17182;DHT22;8706;48.254;16.422;2023-10-13T12:59:22;29.50;55.30
17182;DHT22;8706;48.254;16.422;2023-10-13T13:01:52;29.40;55.50
17182;DHT22;8706;48.254;16.422;2023-10-13T13:04:19;29.20;55.70
17182;DHT22;8706;48.254;16.422;2023-10-13T13:06:47;29.10;55.80
17182;DHT22;8706;48.254;16.422;2023-10-13T13:09:14;29.10;56.00
17182;DHT22;8706;48.254;16.422;2023-10-13T13:11:41;29.00;56.10
17182;DHT22;8706;48.254;16.422;2023-10-13T13:14:09;29.00;56.20
17182;DHT22;8706;48.254;16.422;2023-10-13T13:16:36;28.90;56.30
17182;DHT22;8706;48.254;16.422;2023-10-13T13:19:05;28.90;56.40
17182;DHT22;8706;48.254;16.422;2023-10-13T13:21:37;28.80;56.30
17182;DHT22;8706;48.254;16.422;2023-10-13T13:24:04;28.80;56.60
17182;DHT22;8706;48.254;16.422;2023-10-13T13:26:36;28.80;56.60
17182;DHT22;8706;48.254;16.422;2023-10-13T13:29:06;28.90;56.40
17182;DHT22;8706;48.254;16.422;2023-10-13T13:31:36;29.00;56.30
17182;DHT22;8706;48.254;16.422;2023-10-13T13:34:07;29.00;56.20
17182;DHT22;8706;48.254;16.422;2023-10-13T13:36:36;29.00;56.20
17182;DHT22;8706;48.254;16.422;2023-10-13T13:39:03;29.00;56.20
17182;DHT22;8706;48.254;16.422;2023-10-13T13:41:31;29.00;56.30
17182;DHT22;8706;48.254;16.422;2023-10-13T13:43:58;29.00;56.40
17182;DHT22;8706;48.254;16.422;2023-10-13T13:46:40;28.90;56.40
17182;DHT22;8706;48.254;16.422;2023-10-13T13:49:08;28.80;56.50
17182;DHT22;8706;48.254;16.422;2023-10-13T13:51:44;28.80;56.60
17182;DHT22;8706;48.254;16.422;2023-10-13T13:54:18;28.80;56.50
17182;DHT22;8706;48.254;16.422;2023-10-13T13:56:45;28.80;56.60
17182;DHT22;8706;48.254;16.422;2023-10-13T13:59:12;28.70;56.60
17182;DHT22;8706;48.254;16.422;2023-10-13T14:01:43;28.70;56.70
17182;DHT22;8706;48.254;16.422;2023-10-13T14:04:10;28.70;56.80
17182;DHT22;8706;48.254;16.422;2023-10-13T14:06:39;28.70;56.90
17182;DHT22;8706;48.254;16.422;2023-10-13T14:09:06;28.60;57.00
17182;DHT22;8706;48.254;16.422;2023-10-13T14:11:41;28.60;57.00
17182;DHT22;8706;48.254;16.422;2023-10-13T14:14:38;28.50;57.00
17182;DHT22;8706;48.254;16.422;2023-10-13T14:17:13;28.50;57.10
17182;DHT22;8706;48.254;16.422;2023-10-13T14:19:40;28.40;57.80
17182;DHT22;8706;48.254;16.422;2023-10-13T14:22:09;28.40;57.20
17182;DHT22;8706;48.254;16.422;2023-10-13T14:24:37;28.40;57.40
17182;DHT22;8706;48.254;16.422;2023-10-13T14:27:09;28.30;57.50
17182;DHT22;8706;48.254;16.422;2023-10-13T14:29:41;28.30;57.50
17182;DHT22;8706;48.254;16.422;2023-10-13T14:32:09;28.30;57.50
17182;DHT22;8706;48.254;16.422;2023-10-13T14:34:40;28.30;57.60
17182;DHT22;8706;48.254;16.422;2023-10-13T14:37:07;28.20;57.60
17182;DHT22;8706;48.254;16.422;2023-10-13T14:39:33;28.20;57.80
17182;DHT22;8706;48.254;16.422;2023-10-13T14:42:02;28.20;57.90
17182;DHT22;8706;48.254;16.422;2023-10-13T14:44:31;28.10;57.80
17182;DHT22;8706;48.254;16.422;2023-10-13T14:46:58;28.10;58.00
17182;DHT22;8706;48.254;16.422;2023-10-13T14:49:26;28.00;58.00
17182;DHT22;8706;48.254;16.422;2023-10-13T14:51:54;28.00;58.10
17182;DHT22;8706;48.254;16.422;2023-10-13T14:54:21;28.00;58.20
17182;DHT22;8706;48.254;16.422;2023-10-13T14:56:59;27.90;58.20
17182;DHT22;8706;48.254;16.422;2023-10-13T14:59:27;27.90;58.20
17182;DHT22;8706;48.254;16.422;2023-10-13T15:01:59;27.90;58.30
17182;DHT22;8706;48.254;16.422;2023-10-13T15:04:26;27.90;58.40
17182;DHT22;8706;48.254;16.422;2023-10-13T15:06:55;27.80;58.40
17182;DHT22;8706;48.254;16.422;2023-10-13T15:09:23;27.80;58.50
17182;DHT22;8706;48.254;16.422;2023-10-13T15:11:50;27.70;58.50
17182;DHT22;8706;48.254;16.422;2023-10-13T15:14:19;27.70;58.60
17182;DHT22;8706;48.254;16.422;2023-10-13T15:16:48;27.70;58.70
17182;DHT22;8706;48.254;16.422;2023-10-13T15:19:15;27.60;58.70
17182;DHT22;8706;48.254;16.422;2023-10-13T15:21:43;27.50;58.70
17182;DHT22;8706;48.254;16.422;2023-10-13T15:24:16;27.50;58.90
17182;DHT22;8706;48.254;16.422;2023-10-13T15:26:43;27.50;59.00
17182;DHT22;8706;48.254;16.422;2023-10-13T15:29:14;27.40;59.00
17182;DHT22;8706;48.254;16.422;2023-10-13T15:31:43;27.30;59.10
17182;DHT22;8706;48.254;16.422;2023-10-13T15:34:20;27.30;59.30
17182;DHT22;8706;48.254;16.422;2023-10-13T15:36:49;27.20;59.40
17182;DHT22;8706;48.254;16.422;2023-10-13T15:39:19;27.10;59.40
17182;DHT22;8706;48.254;16.422;2023-10-13T15:41:50;27.10;59.50
17182;DHT22;8706;48.254;16.422;2023-10-13T15:44:19;27.10;59.60
17182;DHT22;8706;48.254;16.422;2023-10-13T15:46:52;27.00;59.60
17182;DHT22;8706;48.254;16.422;2023-10-13T15:49:20;27.00;59.70
17182;DHT22;8706;48.254;16.422;2023-10-13T15:51:46;26.90;59.70
17182;DHT22;8706;48.254;16.422;2023-10-13T15:54:14;26.90;59.90
17182;DHT22;8706;48.254;16.422;2023-10-13T15:56:46;26.80;59.80
17182;DHT22;8706;48.254;16.422;2023-10-13T15:59:13;26.80;60.00
17182;DHT22;8706;48.254;16.422;2023-10-13T16:01:41;26.70;60.10
17182;DHT22;8706;48.254;16.422;2023-10-13T16:04:08;26.70;60.10
17182;DHT22;8706;48.254;16.422;2023-10-13T16:06:38;26.60;60.20
17182;DHT22;8706;48.254;16.422;2023-10-13T16:09:05;26.60;60.30
17182;DHT22;8706;48.254;16.422;2023-10-13T16:11:40;26.50;60.30